NKS555 KLAS-KFLL
Flight info
| Callsign | NKS555 |
|---|---|
| Flight time | N/A |
| Altitude | 35000 |
| Route | NIITZ4 SSKEE GUP TXO CIYAL MQP ARDIA LFK ZIROR/N0443F370 LEV Y290 DOWRY TEEKY4 |
| Aircraft | A320/M-SDE3FGHIRWY/LB1 |
Departure
| Time | 2026-05-08 07:30 |
|---|---|
| Airport | Harry Reid International Airport (KLAS) |
Arrival
| Time | N/A |
|---|---|
| Airport | Fort Lauderdale Hollywood International Airport (KFLL) |
| Time | Latitude | Longitude | Altitude | Speed | Heading |
|---|---|---|---|---|---|
| 2026-05-08 07:18 | 36.08001 | -115.13489 | 2118 ft | 0 kts | 314° |
| 2026-05-08 07:22 | 36.07995 | -115.13482 | 2118 ft | 4 kts | 310° |
| 2026-05-08 07:23 | 36.07980 | -115.13454 | 2119 ft | 4 kts | 291° |
| 2026-05-08 07:23 | 36.07974 | -115.13423 | 2121 ft | 4 kts | 268° |
| 2026-05-08 07:23 | 36.07979 | -115.13391 | 2120 ft | 4 kts | 240° |
| 2026-05-08 07:23 | 36.07995 | -115.13371 | 2120 ft | 1 kts | 203° |
| 2026-05-08 07:24 | 36.07995 | -115.13370 | 2120 ft | 0 kts | 203° |
| 2026-05-08 07:25 | 36.07987 | -115.13373 | 2118 ft | 5 kts | 195° |
| 2026-05-08 07:26 | 36.07952 | -115.13376 | 2119 ft | 5 kts | 180° |
| 2026-05-08 07:26 | 36.07908 | -115.13375 | 2122 ft | 6 kts | 179° |
| 2026-05-08 07:26 | 36.07876 | -115.13375 | 2124 ft | 3 kts | 179° |
| 2026-05-08 07:26 | 36.07832 | -115.13375 | 2126 ft | 10 kts | 179° |
| 2026-05-08 07:27 | 36.07769 | -115.13362 | 2127 ft | 10 kts | 142° |
| 2026-05-08 07:27 | 36.07754 | -115.13247 | 2124 ft | 18 kts | 90° |
| 2026-05-08 07:27 | 36.07754 | -115.13067 | 2122 ft | 22 kts | 91° |
| 2026-05-08 07:27 | 36.07754 | -115.12870 | 2121 ft | 24 kts | 90° |
| 2026-05-08 07:28 | 36.07754 | -115.12669 | 2118 ft | 19 kts | 91° |
| 2026-05-08 07:28 | 36.07724 | -115.12604 | 2120 ft | 5 kts | 162° |
| 2026-05-08 07:28 | 36.07680 | -115.12603 | 2122 ft | 10 kts | 189° |
| 2026-05-08 07:28 | 36.07643 | -115.12718 | 2123 ft | 32 kts | 269° |
| 2026-05-08 07:29 | 36.07640 | -115.13275 | 2125 ft | 95 kts | 270° |
| 2026-05-08 07:29 | 36.07640 | -115.14304 | 2122 ft | 143 kts | 270° |
| 2026-05-08 07:29 | 36.07638 | -115.15697 | 2161 ft | 178 kts | 268° |
| 2026-05-08 07:29 | 36.07653 | -115.17233 | 2759 ft | 179 kts | 269° |
| 2026-05-08 07:30 | 36.07654 | -115.18764 | 3413 ft | 178 kts | 269° |
| 2026-05-08 07:30 | 36.07647 | -115.20292 | 3951 ft | 179 kts | 269° |
| 2026-05-08 07:30 | 36.07478 | -115.21862 | 4099 ft | 196 kts | 260° |
| 2026-05-08 07:30 | 36.07221 | -115.23600 | 4213 ft | 217 kts | 260° |
| 2026-05-08 07:31 | 36.06702 | -115.25435 | 4412 ft | 239 kts | 233° |
| 2026-05-08 07:31 | 36.05332 | -115.26708 | 4669 ft | 262 kts | 206° |
| 2026-05-08 07:31 | 36.03593 | -115.27575 | 5116 ft | 274 kts | 202° |
| 2026-05-08 07:31 | 36.01776 | -115.28370 | 5720 ft | 279 kts | 198° |
| 2026-05-08 07:32 | 35.99825 | -115.28592 | 6348 ft | 287 kts | 173° |
| 2026-05-08 07:32 | 35.97920 | -115.27818 | 6931 ft | 293 kts | 149° |
| 2026-05-08 07:32 | 35.96320 | -115.26254 | 7550 ft | 295 kts | 138° |
| 2026-05-08 07:32 | 35.94782 | -115.24556 | 8178 ft | 299 kts | 137° |
| 2026-05-08 07:33 | 35.93224 | -115.22831 | 8821 ft | 302 kts | 137° |
| 2026-05-08 07:33 | 35.91697 | -115.21039 | 9463 ft | 304 kts | 129° |
| 2026-05-08 07:33 | 35.90483 | -115.18895 | 10084 ft | 305 kts | 118° |
| 2026-05-08 07:33 | 35.89373 | -115.16577 | 10334 ft | 324 kts | 119° |
| 2026-05-08 07:34 | 35.88201 | -115.14106 | 10457 ft | 343 kts | 116° |
| 2026-05-08 07:34 | 35.87292 | -115.11327 | 10723 ft | 353 kts | 104° |
| 2026-05-08 07:34 | 35.86855 | -115.08341 | 11211 ft | 356 kts | 92° |
| 2026-05-08 07:34 | 35.86895 | -115.05296 | 11761 ft | 356 kts | 84° |
| 2026-05-08 07:35 | 35.87069 | -115.02239 | 12315 ft | 359 kts | 84° |
| 2026-05-08 07:35 | 35.87240 | -114.99155 | 12833 ft | 361 kts | 84° |
| 2026-05-08 07:35 | 35.87411 | -114.96050 | 13419 ft | 364 kts | 84° |
| 2026-05-08 07:35 | 35.87582 | -114.92931 | 13982 ft | 366 kts | 84° |
| 2026-05-08 07:36 | 35.87753 | -114.89788 | 14498 ft | 368 kts | 84° |
| 2026-05-08 07:36 | 35.87924 | -114.86625 | 14991 ft | 371 kts | 84° |
| 2026-05-08 07:36 | 35.88095 | -114.83438 | 15474 ft | 374 kts | 84° |
| 2026-05-08 07:36 | 35.88269 | -114.80221 | 15954 ft | 377 kts | 84° |
| 2026-05-08 07:37 | 35.88443 | -114.77023 | 16424 ft | 380 kts | 84° |
| 2026-05-08 07:37 | 35.88619 | -114.73762 | 16896 ft | 383 kts | 84° |
| 2026-05-08 07:37 | 35.88794 | -114.70475 | 17366 ft | 386 kts | 84° |
| 2026-05-08 07:37 | 35.88967 | -114.67156 | 17842 ft | 389 kts | 84° |
| 2026-05-08 07:38 | 35.89135 | -114.63816 | 18277 ft | 392 kts | 84° |
| 2026-05-08 07:38 | 35.89306 | -114.60445 | 18688 ft | 395 kts | 84° |
| 2026-05-08 07:38 | 35.89480 | -114.57056 | 19115 ft | 397 kts | 84° |
| 2026-05-08 07:38 | 35.89656 | -114.53652 | 19541 ft | 399 kts | 84° |
| 2026-05-08 07:39 | 35.89782 | -114.50224 | 19970 ft | 402 kts | 86° |
| 2026-05-08 07:39 | 35.89811 | -114.46763 | 20393 ft | 404 kts | 88° |
| 2026-05-08 07:39 | 35.89778 | -114.43281 | 20806 ft | 407 kts | 89° |
| 2026-05-08 07:39 | 35.89719 | -114.39785 | 21216 ft | 409 kts | 89° |
| 2026-05-08 07:40 | 35.89660 | -114.36270 | 21631 ft | 411 kts | 88° |
| 2026-05-08 07:40 | 35.89613 | -114.32734 | 22012 ft | 414 kts | 88° |
| 2026-05-08 07:40 | 35.89579 | -114.29173 | 22394 ft | 416 kts | 88° |
| 2026-05-08 07:40 | 35.89551 | -114.25598 | 22795 ft | 418 kts | 88° |
| 2026-05-08 07:41 | 35.89526 | -114.22006 | 23194 ft | 420 kts | 88° |
| 2026-05-08 07:41 | 35.89503 | -114.18395 | 23545 ft | 422 kts | 88° |
| 2026-05-08 07:41 | 35.89480 | -114.14762 | 23863 ft | 424 kts | 88° |
| 2026-05-08 07:41 | 35.89457 | -114.11117 | 24196 ft | 426 kts | 88° |
| 2026-05-08 07:42 | 35.89430 | -114.07448 | 24508 ft | 428 kts | 88° |
| 2026-05-08 07:42 | 35.89403 | -114.03769 | 24819 ft | 430 kts | 88° |
| 2026-05-08 07:42 | 35.89376 | -114.00064 | 25135 ft | 432 kts | 88° |
| 2026-05-08 07:42 | 35.89346 | -113.96349 | 25428 ft | 434 kts | 88° |
| 2026-05-08 07:43 | 35.89309 | -113.92610 | 25720 ft | 436 kts | 88° |
| 2026-05-08 07:43 | 35.89269 | -113.88850 | 26020 ft | 438 kts | 88° |
| 2026-05-08 07:43 | 35.89231 | -113.85136 | 26324 ft | 440 kts | 88° |
| 2026-05-08 07:43 | 35.89192 | -113.81349 | 26618 ft | 442 kts | 88° |
| 2026-05-08 07:44 | 35.89152 | -113.77546 | 26915 ft | 444 kts | 88° |
| 2026-05-08 07:44 | 35.89112 | -113.73732 | 27241 ft | 446 kts | 88° |
| 2026-05-08 07:44 | 35.89072 | -113.69899 | 27528 ft | 448 kts | 88° |
| 2026-05-08 07:44 | 35.89032 | -113.66041 | 27815 ft | 450 kts | 88° |
| 2026-05-08 07:45 | 35.88990 | -113.62187 | 28229 ft | 449 kts | 88° |
| 2026-05-08 07:45 | 35.88945 | -113.58345 | 28667 ft | 448 kts | 88° |
| 2026-05-08 07:45 | 35.88887 | -113.54513 | 29072 ft | 447 kts | 90° |
| 2026-05-08 07:45 | 35.88506 | -113.50692 | 29478 ft | 450 kts | 97° |
| 2026-05-08 07:46 | 35.87952 | -113.46901 | 29902 ft | 449 kts | 97° |
| 2026-05-08 07:46 | 35.87399 | -113.43109 | 30268 ft | 448 kts | 97° |
| 2026-05-08 07:46 | 35.86853 | -113.39324 | 30613 ft | 447 kts | 97° |
| 2026-05-08 07:46 | 35.86314 | -113.35559 | 30979 ft | 446 kts | 97° |
| 2026-05-08 07:47 | 35.85773 | -113.31784 | 31351 ft | 445 kts | 96° |
| 2026-05-08 07:47 | 35.85243 | -113.28083 | 31720 ft | 444 kts | 96° |
| 2026-05-08 07:47 | 35.84705 | -113.24344 | 32073 ft | 443 kts | 96° |
| 2026-05-08 07:47 | 35.84166 | -113.20611 | 32457 ft | 441 kts | 96° |
| 2026-05-08 07:48 | 35.83628 | -113.16896 | 32833 ft | 440 kts | 96° |
| 2026-05-08 07:48 | 35.83089 | -113.13191 | 33200 ft | 439 kts | 96° |
| 2026-05-08 07:48 | 35.82549 | -113.09491 | 33604 ft | 438 kts | 96° |
| 2026-05-08 07:48 | 35.82011 | -113.05805 | 33931 ft | 437 kts | 96° |
| 2026-05-08 07:49 | 35.81471 | -113.02120 | 34223 ft | 436 kts | 96° |
| 2026-05-08 07:49 | 35.80928 | -112.98448 | 34485 ft | 436 kts | 96° |
| 2026-05-08 07:49 | 35.80383 | -112.94778 | 34756 ft | 436 kts | 96° |
| 2026-05-08 07:49 | 35.79838 | -112.91104 | 34997 ft | 435 kts | 96° |
| 2026-05-08 07:50 | 35.79295 | -112.87433 | 35237 ft | 435 kts | 96° |
| 2026-05-08 07:50 | 35.78751 | -112.83771 | 35490 ft | 435 kts | 96° |
| 2026-05-08 07:50 | 35.78205 | -112.80113 | 35723 ft | 434 kts | 96° |
| 2026-05-08 07:50 | 35.77658 | -112.76452 | 35954 ft | 434 kts | 96° |
| 2026-05-08 07:51 | 35.77110 | -112.72797 | 36159 ft | 434 kts | 96° |
| 2026-05-08 07:51 | 35.76572 | -112.69190 | 36375 ft | 434 kts | 96° |
| 2026-05-08 07:51 | 35.76026 | -112.65537 | 36578 ft | 434 kts | 96° |
| 2026-05-08 07:51 | 35.75480 | -112.61879 | 36778 ft | 434 kts | 96° |
| 2026-05-08 07:52 | 35.74933 | -112.58224 | 36977 ft | 434 kts | 96° |
| 2026-05-08 07:52 | 35.73827 | -112.50866 | 37028 ft | 441 kts | 96° |
| 2026-05-08 07:53 | 35.72710 | -112.43414 | 37035 ft | 444 kts | 96° |
| 2026-05-08 07:53 | 35.71572 | -112.35931 | 37028 ft | 445 kts | 96° |
| 2026-05-08 07:54 | 35.70428 | -112.28436 | 37033 ft | 445 kts | 96° |
| 2026-05-08 07:54 | 35.69286 | -112.20949 | 37028 ft | 446 kts | 96° |
| 2026-05-08 07:55 | 35.68134 | -112.13449 | 37034 ft | 446 kts | 96° |
| 2026-05-08 07:55 | 35.66976 | -112.05988 | 37047 ft | 447 kts | 96° |
| 2026-05-08 07:56 | 35.65814 | -111.98481 | 37047 ft | 447 kts | 96° |
| 2026-05-08 07:56 | 35.64646 | -111.90961 | 37039 ft | 447 kts | 96° |
| 2026-05-08 07:57 | 35.63480 | -111.83454 | 37047 ft | 446 kts | 94° |
| 2026-05-08 07:57 | 35.63040 | -111.75902 | 37039 ft | 442 kts | 88° |
| 2026-05-08 07:58 | 35.62732 | -111.68357 | 37033 ft | 442 kts | 88° |
| 2026-05-08 07:58 | 35.62410 | -111.60809 | 37029 ft | 442 kts | 88° |
| 2026-05-08 07:59 | 35.62079 | -111.53261 | 37013 ft | 442 kts | 88° |
| 2026-05-08 07:59 | 35.61746 | -111.45712 | 37012 ft | 442 kts | 88° |
| 2026-05-08 08:00 | 35.61416 | -111.38167 | 37000 ft | 442 kts | 88° |
| 2026-05-08 08:00 | 35.61088 | -111.30665 | 37001 ft | 442 kts | 88° |
| 2026-05-08 08:01 | 35.60739 | -111.23065 | 36991 ft | 443 kts | 89° |
| 2026-05-08 08:01 | 35.60384 | -111.15559 | 36996 ft | 443 kts | 89° |
| 2026-05-08 08:02 | 35.60030 | -111.07995 | 36997 ft | 443 kts | 88° |
| 2026-05-08 08:02 | 35.59675 | -111.00432 | 36985 ft | 444 kts | 88° |
| 2026-05-08 08:03 | 35.59317 | -110.92857 | 36980 ft | 444 kts | 89° |
| 2026-05-08 08:03 | 35.58944 | -110.85285 | 36977 ft | 444 kts | 89° |
| 2026-05-08 08:04 | 35.58568 | -110.77715 | 36998 ft | 444 kts | 89° |
| 2026-05-08 08:04 | 35.58195 | -110.70150 | 36989 ft | 444 kts | 89° |
| 2026-05-08 08:05 | 35.57814 | -110.62573 | 36989 ft | 444 kts | 89° |
| 2026-05-08 08:05 | 35.57419 | -110.54998 | 36984 ft | 444 kts | 89° |
| 2026-05-08 08:06 | 35.57021 | -110.47472 | 36982 ft | 444 kts | 89° |
| 2026-05-08 08:06 | 35.56626 | -110.39897 | 36988 ft | 445 kts | 89° |
| 2026-05-08 08:07 | 35.56228 | -110.32302 | 36983 ft | 445 kts | 89° |
| 2026-05-08 08:07 | 35.55820 | -110.24715 | 36988 ft | 446 kts | 89° |
| 2026-05-08 08:08 | 35.55404 | -110.17122 | 36986 ft | 446 kts | 89° |
| 2026-05-08 08:08 | 35.54992 | -110.09520 | 36999 ft | 446 kts | 89° |
| 2026-05-08 08:09 | 35.54568 | -110.01906 | 36994 ft | 447 kts | 89° |
| 2026-05-08 08:09 | 35.54135 | -109.94288 | 36988 ft | 448 kts | 89° |
| 2026-05-08 08:10 | 35.53772 | -109.87946 | 36992 ft | 448 kts | 89° |
| 2026-05-08 08:10 | 35.53338 | -109.80319 | 36996 ft | 448 kts | 89° |
| 2026-05-08 08:11 | 35.52903 | -109.72694 | 37000 ft | 448 kts | 90° |
| 2026-05-08 08:11 | 35.52451 | -109.65062 | 37003 ft | 449 kts | 90° |
| 2026-05-08 08:12 | 35.51988 | -109.57408 | 37001 ft | 449 kts | 90° |
| 2026-05-08 08:12 | 35.51525 | -109.49756 | 37003 ft | 450 kts | 90° |
| 2026-05-08 08:13 | 35.51068 | -109.42097 | 37043 ft | 450 kts | 90° |
| 2026-05-08 08:13 | 35.50600 | -109.34432 | 37077 ft | 451 kts | 90° |
| 2026-05-08 08:14 | 35.50131 | -109.26801 | 37113 ft | 451 kts | 90° |
| 2026-05-08 08:14 | 35.49653 | -109.19113 | 37144 ft | 452 kts | 90° |
| 2026-05-08 08:15 | 35.49159 | -109.11422 | 37168 ft | 452 kts | 90° |
| 2026-05-08 08:15 | 35.48664 | -109.03721 | 37157 ft | 453 kts | 90° |
| 2026-05-08 08:16 | 35.48169 | -108.96014 | 37172 ft | 454 kts | 90° |
| 2026-05-08 08:16 | 35.47659 | -108.88295 | 37205 ft | 454 kts | 91° |
| 2026-05-08 08:17 | 35.46857 | -108.80603 | 37219 ft | 455 kts | 96° |
| 2026-05-08 08:17 | 35.45740 | -108.72965 | 37007 ft | 455 kts | 97° |
| 2026-05-08 08:18 | 35.44598 | -108.65392 | 37004 ft | 454 kts | 97° |
| 2026-05-08 08:18 | 35.43521 | -108.57756 | 37007 ft | 454 kts | 96° |
| 2026-05-08 08:19 | 35.42479 | -108.50115 | 37014 ft | 454 kts | 96° |
| 2026-05-08 08:19 | 35.41429 | -108.42477 | 37032 ft | 454 kts | 96° |
| 2026-05-08 08:20 | 35.40359 | -108.34840 | 37018 ft | 455 kts | 97° |
| 2026-05-08 08:20 | 35.39276 | -108.27197 | 37015 ft | 455 kts | 97° |
| 2026-05-08 08:21 | 35.38188 | -108.19548 | 37050 ft | 455 kts | 97° |
| 2026-05-08 08:21 | 35.37103 | -108.11897 | 37087 ft | 456 kts | 97° |
| 2026-05-08 08:22 | 35.36014 | -108.04257 | 37123 ft | 455 kts | 97° |
| 2026-05-08 08:22 | 35.34918 | -107.96640 | 37163 ft | 453 kts | 97° |
| 2026-05-08 08:23 | 35.33830 | -107.89103 | 37177 ft | 452 kts | 97° |
| 2026-05-08 08:23 | 35.32729 | -107.81523 | 37172 ft | 451 kts | 97° |
| 2026-05-08 08:23 | 35.32180 | -107.77749 | 37011 ft | 450 kts | 97° |
| 2026-05-08 08:24 | 35.31628 | -107.73975 | 37023 ft | 450 kts | 97° |
| 2026-05-08 08:24 | 35.30524 | -107.66438 | 37020 ft | 450 kts | 97° |
| 2026-05-08 08:25 | 35.29421 | -107.58893 | 37006 ft | 451 kts | 97° |
| 2026-05-08 08:25 | 35.28311 | -107.51337 | 37004 ft | 451 kts | 97° |
| 2026-05-08 08:26 | 35.27191 | -107.43788 | 36997 ft | 451 kts | 98° |
| 2026-05-08 08:26 | 35.26067 | -107.36233 | 37003 ft | 451 kts | 98° |
| 2026-05-08 08:27 | 35.24927 | -107.28673 | 37001 ft | 451 kts | 98° |
| 2026-05-08 08:27 | 35.23793 | -107.21175 | 36991 ft | 451 kts | 98° |
| 2026-05-08 08:28 | 35.22661 | -107.13647 | 36989 ft | 449 kts | 98° |
| 2026-05-08 08:28 | 35.21530 | -107.06149 | 36991 ft | 448 kts | 98° |
| 2026-05-08 08:29 | 35.20397 | -106.98658 | 36981 ft | 448 kts | 98° |
| 2026-05-08 08:29 | 35.19253 | -106.91176 | 36981 ft | 448 kts | 98° |
| 2026-05-08 08:30 | 35.18100 | -106.83698 | 36980 ft | 448 kts | 98° |
| 2026-05-08 08:30 | 35.16366 | -106.72479 | 36970 ft | 448 kts | 98° |
| 2026-05-08 08:31 | 35.15202 | -106.64998 | 37127 ft | 447 kts | 99° |
| 2026-05-08 08:31 | 35.14041 | -106.57532 | 37131 ft | 447 kts | 99° |
| 2026-05-08 08:32 | 35.12882 | -106.50114 | 37109 ft | 447 kts | 99° |
| 2026-05-08 08:32 | 35.11710 | -106.42655 | 37107 ft | 447 kts | 99° |
| 2026-05-08 08:33 | 35.10531 | -106.35195 | 37059 ft | 446 kts | 99° |
| 2026-05-08 08:33 | 35.09357 | -106.27756 | 37035 ft | 446 kts | 99° |
| 2026-05-08 08:34 | 35.08172 | -106.20314 | 37007 ft | 446 kts | 99° |
| 2026-05-08 08:34 | 35.06985 | -106.12878 | 36996 ft | 446 kts | 99° |
| 2026-05-08 08:35 | 35.05792 | -106.05438 | 37005 ft | 446 kts | 99° |
| 2026-05-08 08:35 | 35.04585 | -105.98002 | 37009 ft | 446 kts | 100° |
| 2026-05-08 08:36 | 35.03379 | -105.90567 | 37010 ft | 447 kts | 100° |
| 2026-05-08 08:36 | 35.02174 | -105.83125 | 37009 ft | 447 kts | 100° |
| 2026-05-08 08:37 | 35.00965 | -105.75683 | 37010 ft | 447 kts | 100° |
| 2026-05-08 08:37 | 34.99752 | -105.68243 | 37011 ft | 447 kts | 100° |
| 2026-05-08 08:38 | 34.98526 | -105.60808 | 37012 ft | 447 kts | 101° |
| 2026-05-08 08:38 | 34.97292 | -105.53366 | 37004 ft | 447 kts | 101° |
| 2026-05-08 08:39 | 34.96059 | -105.45934 | 36979 ft | 447 kts | 101° |
| 2026-05-08 08:39 | 34.94831 | -105.38546 | 36982 ft | 447 kts | 101° |
| 2026-05-08 08:40 | 34.93592 | -105.31111 | 36964 ft | 447 kts | 101° |
| 2026-05-08 08:40 | 34.92353 | -105.23676 | 36967 ft | 448 kts | 101° |
| 2026-05-08 08:41 | 34.91101 | -105.16245 | 36953 ft | 448 kts | 101° |
| 2026-05-08 08:41 | 34.89846 | -105.08803 | 36957 ft | 448 kts | 101° |
| 2026-05-08 08:42 | 34.88585 | -105.01352 | 36949 ft | 449 kts | 102° |
| 2026-05-08 08:42 | 34.87316 | -104.93907 | 36996 ft | 449 kts | 102° |
| 2026-05-08 08:43 | 34.86034 | -104.86458 | 37020 ft | 450 kts | 102° |
| 2026-05-08 08:43 | 34.84750 | -104.78994 | 37035 ft | 451 kts | 102° |
| 2026-05-08 08:44 | 34.83465 | -104.71510 | 37039 ft | 451 kts | 102° |
| 2026-05-08 08:44 | 34.82170 | -104.64033 | 37045 ft | 452 kts | 103° |
| 2026-05-08 08:45 | 34.80876 | -104.56549 | 37037 ft | 452 kts | 102° |
| 2026-05-08 08:45 | 34.79569 | -104.49058 | 37013 ft | 452 kts | 103° |
| 2026-05-08 08:46 | 34.78248 | -104.41568 | 36992 ft | 453 kts | 103° |
| 2026-05-08 08:46 | 34.76933 | -104.34088 | 36952 ft | 453 kts | 103° |
| 2026-05-08 08:47 | 34.75626 | -104.26625 | 36920 ft | 453 kts | 103° |
| 2026-05-08 08:47 | 34.74301 | -104.19132 | 36913 ft | 453 kts | 103° |
| 2026-05-08 08:48 | 34.72966 | -104.11629 | 36903 ft | 454 kts | 103° |
| 2026-05-08 08:48 | 34.71626 | -104.04118 | 36900 ft | 455 kts | 103° |
| 2026-05-08 08:49 | 34.70279 | -103.96592 | 36901 ft | 456 kts | 103° |
| 2026-05-08 08:49 | 34.68926 | -103.89067 | 36889 ft | 456 kts | 104° |
| 2026-05-08 08:50 | 34.67569 | -103.81559 | 36890 ft | 458 kts | 104° |
| 2026-05-08 08:50 | 34.66203 | -103.73990 | 36884 ft | 460 kts | 104° |
| 2026-05-08 08:51 | 34.64828 | -103.66393 | 36887 ft | 461 kts | 104° |
| 2026-05-08 08:51 | 34.63440 | -103.58790 | 36904 ft | 462 kts | 104° |
| 2026-05-08 08:52 | 34.62046 | -103.51173 | 36912 ft | 462 kts | 104° |
| 2026-05-08 08:52 | 34.60635 | -103.43549 | 36927 ft | 464 kts | 105° |
| 2026-05-08 08:53 | 34.59230 | -103.35904 | 36920 ft | 465 kts | 105° |
| 2026-05-08 08:53 | 34.57812 | -103.28239 | 36963 ft | 466 kts | 105° |
| 2026-05-08 08:54 | 34.56389 | -103.20571 | 36993 ft | 466 kts | 105° |
| 2026-05-08 08:54 | 34.54958 | -103.12891 | 37009 ft | 467 kts | 105° |
| 2026-05-08 08:55 | 34.53528 | -103.05252 | 36985 ft | 468 kts | 107° |
| 2026-05-08 08:55 | 34.52078 | -102.97518 | 36977 ft | 471 kts | 107° |
| 2026-05-08 08:56 | 34.50609 | -102.89761 | 36970 ft | 473 kts | 107° |
| 2026-05-08 08:56 | 34.48877 | -102.82085 | 36974 ft | 469 kts | 117° |
| 2026-05-08 08:57 | 34.46387 | -102.74786 | 36976 ft | 469 kts | 118° |
| 2026-05-08 08:57 | 34.44296 | -102.68645 | 36985 ft | 471 kts | 117° |
| 2026-05-08 08:58 | 34.41796 | -102.61294 | 36969 ft | 472 kts | 117° |
| 2026-05-08 08:58 | 34.39284 | -102.53929 | 36978 ft | 473 kts | 117° |
| 2026-05-08 08:59 | 34.36755 | -102.46559 | 36981 ft | 474 kts | 118° |
| 2026-05-08 08:59 | 34.34236 | -102.39241 | 36958 ft | 475 kts | 119° |
| 2026-05-08 09:00 | 34.31692 | -102.31849 | 36945 ft | 477 kts | 119° |
| 2026-05-08 09:00 | 34.29129 | -102.24429 | 36956 ft | 479 kts | 119° |
| 2026-05-08 09:01 | 34.26559 | -102.16992 | 36956 ft | 480 kts | 119° |
| 2026-05-08 09:01 | 34.23973 | -102.09541 | 36975 ft | 480 kts | 119° |
| 2026-05-08 09:02 | 34.21388 | -102.02095 | 36990 ft | 481 kts | 119° |
| 2026-05-08 09:02 | 34.18789 | -101.94626 | 37004 ft | 482 kts | 120° |
| 2026-05-08 09:03 | 34.16174 | -101.87158 | 37027 ft | 483 kts | 120° |
| 2026-05-08 09:03 | 34.13550 | -101.79673 | 37023 ft | 484 kts | 120° |
| 2026-05-08 09:04 | 34.10925 | -101.72182 | 37035 ft | 485 kts | 120° |
| 2026-05-08 09:04 | 34.08295 | -101.64694 | 37034 ft | 485 kts | 120° |
| 2026-05-08 09:05 | 34.05653 | -101.57197 | 37031 ft | 486 kts | 120° |
| 2026-05-08 09:05 | 34.03022 | -101.49755 | 37014 ft | 486 kts | 120° |
| 2026-05-08 09:06 | 34.00364 | -101.42258 | 36992 ft | 486 kts | 120° |
| 2026-05-08 09:06 | 33.97705 | -101.34770 | 36972 ft | 486 kts | 120° |
| 2026-05-08 09:07 | 33.95042 | -101.27274 | 36939 ft | 487 kts | 120° |
| 2026-05-08 09:07 | 33.92372 | -101.19783 | 36950 ft | 487 kts | 120° |
| 2026-05-08 09:08 | 33.89693 | -101.12298 | 36965 ft | 487 kts | 121° |
| 2026-05-08 09:08 | 33.87010 | -101.04808 | 36968 ft | 487 kts | 121° |
| 2026-05-08 09:09 | 33.84338 | -100.97379 | 36968 ft | 487 kts | 121° |
| 2026-05-08 09:09 | 33.81643 | -100.89898 | 36970 ft | 487 kts | 121° |
| 2026-05-08 09:10 | 33.78949 | -100.82432 | 36975 ft | 487 kts | 121° |
| 2026-05-08 09:10 | 33.76255 | -100.74959 | 36975 ft | 487 kts | 121° |
| 2026-05-08 09:11 | 33.73553 | -100.67495 | 36958 ft | 487 kts | 121° |
| 2026-05-08 09:11 | 33.70841 | -100.60023 | 36965 ft | 488 kts | 121° |
| 2026-05-08 09:12 | 33.68117 | -100.52548 | 36960 ft | 488 kts | 122° |
| 2026-05-08 09:12 | 33.65376 | -100.45074 | 36964 ft | 490 kts | 122° |
| 2026-05-08 09:13 | 33.62639 | -100.37587 | 36976 ft | 490 kts | 122° |
| 2026-05-08 09:13 | 33.59918 | -100.30135 | 36983 ft | 491 kts | 122° |
| 2026-05-08 09:14 | 33.57159 | -100.22635 | 36988 ft | 491 kts | 122° |
| 2026-05-08 09:14 | 33.54402 | -100.15141 | 36976 ft | 492 kts | 123° |
| 2026-05-08 09:15 | 33.51633 | -100.07631 | 36948 ft | 493 kts | 123° |
| 2026-05-08 09:15 | 33.48851 | -100.00112 | 36957 ft | 494 kts | 123° |
| 2026-05-08 09:16 | 33.46060 | -99.92572 | 36976 ft | 495 kts | 123° |
| 2026-05-08 09:16 | 33.43254 | -99.85024 | 36996 ft | 496 kts | 124° |
| 2026-05-08 09:17 | 33.40439 | -99.77483 | 36985 ft | 496 kts | 124° |
| 2026-05-08 09:17 | 33.37629 | -99.69978 | 36990 ft | 497 kts | 124° |